Terminal Aerodrome Forecast
Issued by NWS Atlanta, GA

Home | Current Version | Previous Version | Text Only | Print | Product List | Glossary On
Versions: 1 2 3 4 5 6 7 8 9 10 11 12 13 14 15 16 17 18 19 20 21 22 23 24 25 26 27 28 29 30 31 32 33 34 35 36
000
FTAK31 PAJN 261100
TAFAHN
TAF
PAHN 261138Z 2612/2712 30015KT P6SM VCSH OVC015
     FM261500 30012KT P6SM -SHSN OVC015
     FM262200 30010KT P6SM -SHRASN SCT015 OVC050
     FM270600 30010KT P6SM VCSH SCT015 BKN050
      AMD LTD TO CLD VIS AND WIND=

USA.gov is the U.S. government's official web portal to all federal, state and local government web resources and services.